createdAt,value
2023-01-18T00:01:15.665Z,94150.41
2023-01-18T00:03:42.729Z,94149.13
2023-01-18T00:06:10.738Z,94153.22
2023-01-18T00:08:38.864Z,94157.31
2023-01-18T00:11:12.743Z,94161.34
2023-01-18T00:13:39.884Z,94159.41
2023-01-18T00:16:08.982Z,94156.00
2023-01-18T00:18:36.147Z,94164.03
2023-01-18T00:21:08.053Z,94162.53
2023-01-18T00:23:35.576Z,94167.25
2023-01-18T00:26:08.222Z,94167.88
2023-01-18T00:28:35.702Z,94169.25
2023-01-18T00:31:09.378Z,94173.47
2023-01-18T00:33:36.320Z,94178.88
2023-01-18T00:36:04.271Z,94180.09
2023-01-18T00:38:31.256Z,94180.09
2023-01-18T00:40:58.096Z,94179.38
2023-01-18T00:43:40.226Z,94176.69
2023-01-18T00:46:12.499Z,94178.69
2023-01-18T00:48:40.121Z,94188.13
2023-01-18T00:51:12.250Z,94192.78
2023-01-18T00:53:39.656Z,94188.69
2023-01-18T00:56:08.751Z,94192.72
2023-01-18T00:58:37.607Z,94193.41
2023-01-18T01:01:08.263Z,94200.13
2023-01-18T01:03:55.046Z,94207.06
2023-01-18T01:06:44.504Z,94208.84
2023-01-18T01:09:20.387Z,94214.75
2023-01-18T01:12:07.209Z,94215.97
2023-01-18T01:14:55.290Z,94224.81
2023-01-18T01:17:40.664Z,94224.81
2023-01-18T01:20:27.116Z,94224.81
2023-01-18T01:23:12.656Z,94237.59
2023-01-18T01:25:58.122Z,94236.81
2023-01-18T01:28:25.089Z,94253.03
2023-01-18T01:30:52.106Z,94254.34
2023-01-18T01:33:19.589Z,94262.47
2023-01-18T01:35:46.482Z,94256.44
2023-01-18T01:38:13.243Z,94260.94
2023-01-18T01:40:40.106Z,94264.88
2023-01-18T01:43:12.978Z,94268.84
2023-01-18T01:45:40.076Z,94268.78
2023-01-18T01:48:07.633Z,94277.38
2023-01-18T01:50:39.979Z,94286.69
2023-01-18T01:53:07.086Z,94287.91
2023-01-18T01:55:36.808Z,94292.59
2023-01-18T01:58:26.968Z,94291.19
2023-01-18T02:00:54.338Z,94296.69
2023-01-18T02:03:22.825Z,94308.81
2023-01-18T02:05:54.159Z,94306.03
2023-01-18T02:08:23.962Z,94312.84
2023-01-18T02:10:52.301Z,94314.13
2023-01-18T02:13:21.644Z,94318.84
2023-01-18T02:16:07.313Z,94322.03
2023-01-18T02:18:54.654Z,94322.53
2023-01-18T02:21:37.025Z,94325.84
2023-01-18T02:24:31.698Z,94324.31
2023-01-18T02:27:15.338Z,94326.94
2023-01-18T02:30:28.597Z,94333.03
2023-01-18T02:33:01.531Z,94332.25
2023-01-18T02:36:00.988Z,94335.66
2023-01-18T02:38:44.928Z,94345.16
2023-01-18T02:42:06.888Z,94351.25
2023-01-18T02:44:57.404Z,94347.06
2023-01-18T02:47:24.880Z,94364.47
2023-01-18T02:49:51.543Z,94366.34
2023-01-18T02:52:40.223Z,94369.78
2023-01-18T02:55:30.754Z,94368.25
2023-01-18T02:58:10.185Z,94371.66
2023-01-18T03:00:40.946Z,94371.66
2023-01-18T03:03:10.961Z,94381.84
2023-01-18T03:05:38.418Z,94373.75
2023-01-18T03:08:26.406Z,94381.28
2023-01-18T03:11:01.379Z,94383.88
2023-01-18T03:13:40.552Z,94395.28
2023-01-18T03:16:14.836Z,94390.56
2023-01-18T03:19:06.475Z,94389.78
2023-01-18T03:21:47.556Z,94396.47
2023-01-18T03:24:16.454Z,94391.06
2023-01-18T03:26:47.090Z,94392.25
2023-01-18T03:29:33.079Z,94399.88
2023-01-18T03:32:27.793Z,94405.06
2023-01-18T03:35:10.988Z,94413.19
2023-01-18T03:37:40.853Z,94412.47
2023-01-18T03:40:23.871Z,94419.06
2023-01-18T03:42:56.172Z,94423.06
2023-01-18T03:45:40.112Z,94427.16
2023-01-18T03:48:08.665Z,94422.59
2023-01-18T03:50:53.647Z,94433.50
2023-01-18T03:53:42.417Z,94433.50
2023-01-18T03:56:11.941Z,94438.91
2023-01-18T03:58:39.751Z,94446.53
2023-01-18T04:01:06.736Z,94447.81
2023-01-18T04:03:34.678Z,94444.41
2023-01-18T04:06:03.056Z,94450.63
2023-01-18T04:08:30.017Z,94456.75
2023-01-18T04:10:56.771Z,94461.66
2023-01-18T04:13:23.643Z,94462.16
2023-01-18T04:15:50.555Z,94473.19
2023-01-18T04:18:17.460Z,94466.34
2023-01-18T04:20:44.135Z,94470.34
2023-01-18T04:23:10.987Z,94479.16
2023-01-18T04:25:40.871Z,94481.16
2023-01-18T04:28:07.963Z,94476.47
2023-01-18T04:30:35.000Z,94484.47
2023-01-18T04:33:02.139Z,94485.16
2023-01-18T04:35:29.103Z,94494.81
2023-01-18T04:37:55.891Z,94498.22
2023-01-18T04:40:22.577Z,94504.91
2023-01-18T04:42:53.778Z,94498.22
2023-01-18T04:45:20.928Z,94499.59
2023-01-18T04:47:47.613Z,94507.72
2023-01-18T04:50:14.444Z,94507.72
2023-01-18T04:52:41.296Z,94503.59
2023-01-18T04:55:08.706Z,94513.03
2023-01-18T04:57:35.483Z,94512.91
2023-01-18T05:00:02.351Z,94525.59
2023-01-18T05:02:29.127Z,94532.50
2023-01-18T05:04:56.208Z,94531.94
2023-01-18T05:07:26.840Z,94542.84
2023-01-18T05:09:53.588Z,94545.09
2023-01-18T05:12:20.340Z,94553.66
2023-01-18T05:14:47.246Z,94556.84
2023-01-18T05:17:14.198Z,94553.44
2023-01-18T05:19:41.203Z,94562.25
2023-01-18T05:22:08.073Z,94561.53
2023-01-18T05:24:34.892Z,94571.66
2023-01-18T05:27:01.688Z,94573.75
2023-01-18T05:29:28.597Z,94577.88
2023-01-18T05:31:55.420Z,94576.59
2023-01-18T05:34:22.636Z,94579.41
2023-01-18T05:36:49.450Z,94589.50
2023-01-18T05:39:16.441Z,94585.50
2023-01-18T05:41:43.645Z,94596.44
2023-01-18T05:44:11.253Z,94607.34
2023-01-18T05:46:37.978Z,94605.97
2023-01-18T05:49:04.677Z,94610.13
2023-01-18T05:51:31.493Z,94614.75
2023-01-18T05:53:59.051Z,94615.56
2023-01-18T05:56:26.269Z,94620.81
2023-01-18T05:58:53.582Z,94625.78
2023-01-18T06:01:22.843Z,94624.75
2023-01-18T06:03:49.783Z,94626.66
2023-01-18T06:06:17.900Z,94639.59
2023-01-18T06:08:45.100Z,94643.50
2023-01-18T06:11:11.811Z,94643.91
2023-01-18T06:13:38.716Z,94645.00
2023-01-18T06:16:05.903Z,94650.78
2023-01-18T06:18:33.541Z,94655.84
2023-01-18T06:21:01.859Z,94651.44
2023-01-18T06:23:30.134Z,94665.88
2023-01-18T06:25:57.006Z,94675.06
2023-01-18T06:28:23.866Z,94675.28
2023-01-18T06:30:53.902Z,94679.56
2023-01-18T06:33:20.725Z,94690.66
2023-01-18T06:35:47.300Z,94694.47
2023-01-18T06:38:14.827Z,94698.63
2023-01-18T06:40:41.668Z,94708.25
2023-01-18T06:43:10.326Z,94703.31
2023-01-18T06:45:37.487Z,94709.13
2023-01-18T06:48:04.318Z,94709.56
2023-01-18T06:50:31.156Z,94713.53
2023-01-18T06:52:58.286Z,94715.69
2023-01-18T06:55:25.416Z,94720.06
2023-01-18T06:57:52.264Z,94722.47
2023-01-18T07:00:19.712Z,94734.22
2023-01-18T07:02:46.650Z,94733.81
2023-01-18T07:05:13.274Z,94738.34
2023-01-18T07:07:40.092Z,94744.72
2023-01-18T07:10:07.275Z,94744.72
2023-01-18T07:12:34.196Z,94755.59
2023-01-18T07:15:09.894Z,94753.63
2023-01-18T07:17:47.210Z,94759.56
2023-01-18T07:20:16.219Z,94761.25
2023-01-18T07:22:43.223Z,94767.50
2023-01-18T07:25:13.367Z,94774.41
2023-01-18T07:27:43.309Z,94780.94
2023-01-18T07:30:14.195Z,94778.53
2023-01-18T07:32:48.725Z,94783.06
2023-01-18T07:35:17.250Z,94788.84
2023-01-18T07:37:49.656Z,94788.41
2023-01-18T07:40:17.237Z,94798.88
2023-01-18T07:42:44.714Z,94800.00
2023-01-18T07:45:13.784Z,94807.81
2023-01-18T07:47:43.259Z,94812.63
2023-01-18T07:50:10.980Z,94830.50
2023-01-18T07:52:37.776Z,94831.03
2023-01-18T07:55:06.768Z,94833.72
2023-01-18T07:57:33.639Z,94835.16
2023-01-18T08:00:00.780Z,94838.84
2023-01-18T08:02:27.752Z,94841.09
2023-01-18T08:04:54.773Z,94854.13
2023-01-18T08:07:21.623Z,94851.03
2023-01-18T08:09:48.336Z,94857.09
2023-01-18T08:12:18.154Z,94864.84
2023-01-18T08:14:48.162Z,94869.06
2023-01-18T08:17:15.215Z,94878.09
2023-01-18T08:19:42.131Z,94881.94
2023-01-18T08:22:10.014Z,94884.78
2023-01-18T08:24:36.691Z,94897.09
2023-01-18T08:27:03.587Z,94901.09
2023-01-18T08:29:30.575Z,94901.13
2023-01-18T08:32:00.147Z,94902.25
2023-01-18T08:34:27.585Z,94912.44
2023-01-18T08:36:54.963Z,94922.94
2023-01-18T08:39:21.895Z,94923.66
2023-01-18T08:41:49.597Z,94929.22
2023-01-18T08:44:16.587Z,94942.53
2023-01-18T08:46:43.698Z,94953.19
2023-01-18T08:49:10.689Z,94959.53
2023-01-18T08:51:37.766Z,94957.84
2023-01-18T08:54:06.731Z,94963.25
2023-01-18T08:56:33.896Z,94965.53
2023-01-18T08:59:01.169Z,94973.03
2023-01-18T09:01:28.570Z,94980.84
2023-01-18T09:03:58.376Z,94984.81
2023-01-18T09:06:26.525Z,94994.59
2023-01-18T09:08:53.486Z,94992.88
2023-01-18T09:11:20.394Z,95001.88
2023-01-18T09:14:00.236Z,95014.41
2023-01-18T09:16:28.100Z,95015.88
2023-01-18T09:18:56.446Z,95017.94
2023-01-18T09:21:23.614Z,95014.84
2023-01-18T09:23:51.150Z,95023.25
2023-01-18T09:26:20.581Z,95032.50
2023-01-18T09:28:51.073Z,95032.22
2023-01-18T09:31:20.081Z,95035.44
2023-01-18T09:33:53.254Z,95037.59
2023-01-18T09:36:23.919Z,95052.06
2023-01-18T09:38:50.698Z,95052.00
2023-01-18T09:41:33.468Z,95054.72
2023-01-18T09:44:16.846Z,95063.41
2023-01-18T09:46:44.809Z,95070.28
2023-01-18T09:49:29.069Z,95068.88
2023-01-18T09:52:07.979Z,95073.41
2023-01-18T09:54:43.995Z,95080.28
2023-01-18T09:57:41.979Z,95085.19
2023-01-18T10:00:25.128Z,95083.16
2023-01-18T10:02:55.875Z,95086.78
2023-01-18T10:05:26.260Z,95093.16
2023-01-18T10:08:16.283Z,95098.66
2023-01-18T10:11:04.420Z,95104.28
2023-01-18T10:13:38.188Z,95097.81
2023-01-18T10:16:10.014Z,95109.19
2023-01-18T10:18:45.781Z,95107.28
2023-01-18T10:21:18.178Z,95118.31
2023-01-18T10:23:47.514Z,95122.56
2023-01-18T10:26:18.179Z,95124.06
2023-01-18T10:28:48.938Z,95123.38
2023-01-18T10:31:15.953Z,95126.38
2023-01-18T10:33:43.682Z,95128.06
2023-01-18T10:36:26.930Z,95132.88
2023-01-18T10:38:55.497Z,95135.09
2023-01-18T10:41:28.802Z,95140.13
2023-01-18T10:43:55.828Z,95141.78
2023-01-18T10:46:22.398Z,95151.34
2023-01-18T10:48:52.948Z,95158.81
2023-01-18T10:51:37.679Z,95160.91
2023-01-18T10:54:29.157Z,95161.31
2023-01-18T10:57:05.871Z,95160.16
2023-01-18T10:59:37.489Z,95161.56
2023-01-18T11:02:07.613Z,95160.41
2023-01-18T11:04:34.543Z,95167.19
2023-01-18T11:07:01.762Z,95174.75
2023-01-18T11:09:34.565Z,95177.78
2023-01-18T11:12:38.519Z,95181.63
2023-01-18T11:15:14.565Z,95184.19
2023-01-18T11:17:44.366Z,95183.72
2023-01-18T11:20:16.268Z,95181.56
2023-01-18T11:23:00.089Z,95179.13
2023-01-18T11:25:49.729Z,95184.53
2023-01-18T11:28:24.340Z,95184.31
2023-01-18T11:30:54.216Z,95189.31
2023-01-18T11:33:23.242Z,95200.28
2023-01-18T11:36:00.203Z,95195.38
2023-01-18T11:38:30.097Z,95188.22
2023-01-18T11:41:16.108Z,95189.00
2023-01-18T11:44:06.780Z,95185.31
2023-01-18T11:46:46.728Z,95192.56
2023-01-18T11:49:26.296Z,95204.53
2023-01-18T11:52:12.612Z,95205.22
2023-01-18T11:54:51.118Z,95198.56
2023-01-18T11:57:18.189Z,95195.09
2023-01-18T11:59:46.312Z,95200.41
2023-01-18T12:02:58.519Z,95202.00
2023-01-18T12:05:28.446Z,95206.75
2023-01-18T12:08:17.353Z,95199.13
2023-01-18T12:11:13.698Z,95203.31
2023-01-18T12:14:05.298Z,95213.25
2023-01-18T12:16:41.605Z,95227.38
2023-01-18T12:19:27.665Z,95225.19
2023-01-18T12:22:04.825Z,95228.09
2023-01-18T12:24:55.097Z,95234.75
2023-01-18T12:27:48.740Z,95233.50
2023-01-18T12:30:30.622Z,95235.22
2023-01-18T12:33:13.056Z,95234.84
2023-01-18T12:35:56.728Z,95242.91
2023-01-18T12:38:32.587Z,95243.91
2023-01-18T12:41:12.020Z,95243.44
2023-01-18T12:43:50.267Z,95244.47
2023-01-18T12:46:19.349Z,95250.25
2023-01-18T12:48:56.997Z,95258.13
2023-01-18T12:51:26.342Z,95263.66
2023-01-18T12:54:02.657Z,95268.28
2023-01-18T12:56:33.202Z,95262.47
2023-01-18T12:59:03.798Z,95260.69
2023-01-18T13:01:35.059Z,95271.16
2023-01-18T13:04:10.587Z,95277.56
2023-01-18T13:06:38.630Z,95273.00
2023-01-18T13:09:28.742Z,95276.00
2023-01-18T13:11:58.625Z,95286.66
2023-01-18T13:14:49.229Z,95282.09
2023-01-18T13:17:30.525Z,95288.59
2023-01-18T13:20:07.205Z,95291.66
2023-01-18T13:23:12.048Z,95285.56
2023-01-18T13:25:48.525Z,95290.94
2023-01-18T13:28:25.172Z,95302.72
2023-01-18T13:31:01.912Z,95295.16
2023-01-18T13:33:56.182Z,95302.63
2023-01-18T13:36:23.110Z,95303.78
2023-01-18T13:38:53.836Z,95304.41
2023-01-18T13:41:27.395Z,95309.81
2023-01-18T13:44:25.682Z,95318.59
2023-01-18T13:46:52.962Z,95321.81
2023-01-18T13:49:38.788Z,95322.69
2023-01-18T13:52:32.584Z,95326.72
2023-01-18T13:55:04.112Z,95334.63
2023-01-18T13:57:33.307Z,95330.56
2023-01-18T14:00:01.349Z,95334.97
2023-01-18T14:02:42.752Z,95349.38
2023-01-18T14:05:25.520Z,95359.72
2023-01-18T14:07:56.059Z,95364.28
2023-01-18T14:10:37.107Z,95368.09
2023-01-18T14:13:08.899Z,95372.63
2023-01-18T14:15:41.956Z,95377.63
2023-01-18T14:18:27.452Z,95383.16
2023-01-18T14:21:22.280Z,95387.91
2023-01-18T14:24:17.839Z,95387.13
2023-01-18T14:26:47.005Z,95392.06
2023-01-18T14:29:32.020Z,95395.88
2023-01-18T14:31:59.256Z,95387.78
2023-01-18T14:34:36.013Z,95396.69
2023-01-18T14:37:04.028Z,95405.41
2023-01-18T14:39:33.215Z,95402.34
2023-01-18T14:42:04.034Z,95403.72
2023-01-18T14:44:56.353Z,95409.41
2023-01-18T14:47:30.938Z,95416.94
2023-01-18T14:49:58.755Z,95421.09
2023-01-18T14:52:29.487Z,95420.44
2023-01-18T14:54:56.479Z,95431.09
2023-01-18T14:57:24.353Z,95430.81
2023-01-18T14:59:57.513Z,95430.91
2023-01-18T15:02:29.510Z,95434.09
2023-01-18T15:05:17.243Z,95428.81
2023-01-18T15:07:46.464Z,95425.53
2023-01-18T15:10:16.912Z,95438.47
2023-01-18T15:12:47.121Z,95447.28
2023-01-18T15:15:42.545Z,95445.00
2023-01-18T15:18:14.954Z,95443.09
2023-01-18T15:21:01.044Z,95451.19
2023-01-18T15:23:28.895Z,95455.13
2023-01-18T15:25:56.875Z,95456.00
2023-01-18T15:28:30.138Z,95458.38
2023-01-18T15:30:57.943Z,95459.50
2023-01-18T15:33:25.983Z,95471.69
2023-01-18T15:35:59.014Z,95475.09
2023-01-18T15:38:26.277Z,95480.28
2023-01-18T15:41:10.986Z,95482.44
2023-01-18T15:43:43.463Z,95486.19
2023-01-18T15:46:14.611Z,95482.28
2023-01-18T15:48:57.378Z,95481.94
2023-01-18T15:51:45.319Z,95486.75
2023-01-18T15:54:20.700Z,95485.13
2023-01-18T15:56:49.022Z,95487.09
2023-01-18T15:59:21.916Z,95489.94
2023-01-18T16:02:24.471Z,95497.63
2023-01-18T16:05:08.610Z,95503.88
2023-01-18T16:07:43.463Z,95497.78
2023-01-18T16:10:28.156Z,95507.63
2023-01-18T16:12:57.163Z,95509.78
2023-01-18T16:15:29.187Z,95513.88
2023-01-18T16:18:02.999Z,95512.28
2023-01-18T16:20:31.876Z,95516.34
2023-01-18T16:23:17.546Z,95518.84
2023-01-18T16:25:52.752Z,95521.16
2023-01-18T16:28:24.083Z,95535.28
2023-01-18T16:30:52.253Z,95540.63
2023-01-18T16:33:21.678Z,95537.94
2023-01-18T16:35:49.812Z,95548.88
2023-01-18T16:38:19.078Z,95561.91
2023-01-18T16:40:49.721Z,95559.44
2023-01-18T16:43:28.745Z,95561.06
2023-01-18T16:45:57.144Z,95563.22
2023-01-18T16:48:26.654Z,95566.06
2023-01-18T16:50:56.221Z,95574.09
2023-01-18T16:53:23.654Z,95571.59
2023-01-18T16:55:51.114Z,95570.38
2023-01-18T16:58:21.536Z,95580.56
2023-01-18T17:00:59.310Z,95585.28
2023-01-18T17:03:27.764Z,95589.22
2023-01-18T17:05:55.438Z,95595.13
2023-01-18T17:08:22.849Z,95605.09
2023-01-18T17:10:51.230Z,95612.56
2023-01-18T17:13:18.183Z,95614.25
2023-01-18T17:15:45.720Z,95614.38
2023-01-18T17:18:17.883Z,95625.78
2023-01-18T17:20:44.892Z,95626.25
2023-01-18T17:23:12.077Z,95635.88
2023-01-18T17:25:39.518Z,95643.34
2023-01-18T17:28:06.580Z,95636.13
2023-01-18T17:30:34.671Z,95642.88
2023-01-18T17:33:01.868Z,95659.00
2023-01-18T17:35:29.151Z,95662.88
2023-01-18T17:38:04.687Z,95661.41
2023-01-18T17:40:42.779Z,95668.00
2023-01-18T17:43:36.535Z,95683.25
2023-01-18T17:46:05.422Z,95674.94
2023-01-18T17:48:32.449Z,95684.03
2023-01-18T17:50:59.243Z,95683.09
2023-01-18T17:59:18.111Z,95702.97
2023-01-18T18:01:46.004Z,95707.94
2023-01-18T18:04:13.776Z,95709.56
2023-01-18T18:06:49.731Z,95715.09
2023-01-18T18:09:21.045Z,95716.00
2023-01-18T18:11:48.099Z,95724.22
2023-01-18T18:14:14.858Z,95726.53
2023-01-18T18:16:43.847Z,95720.59
2023-01-18T18:33:43.765Z,95753.91
2023-01-18T18:36:10.741Z,95753.91
2023-01-18T18:38:38.649Z,95761.63
2023-01-18T18:41:06.909Z,95765.03
2023-01-18T18:43:33.657Z,95765.38
2023-01-18T18:46:01.342Z,95775.06
2023-01-18T18:48:28.151Z,95770.19
2023-01-18T18:50:55.651Z,95777.75
2023-01-18T18:53:29.629Z,95785.28
2023-01-18T18:56:06.948Z,95793.38
2023-01-18T18:58:34.859Z,95788.13
2023-01-18T19:01:02.641Z,95788.84
2023-01-18T19:03:29.695Z,95796.94
2023-01-18T19:05:56.584Z,95793.72
2023-01-18T19:08:23.873Z,95800.34
2023-01-18T19:10:51.863Z,95801.63
2023-01-18T19:13:19.249Z,95810.44
2023-01-18T19:15:47.120Z,95809.72
2023-01-18T19:18:14.500Z,95823.91
2023-01-18T19:20:41.519Z,95818.69
2023-01-18T19:23:09.154Z,95821.41
2023-01-18T19:25:38.422Z,95827.50
2023-01-18T19:28:05.781Z,95821.41
2023-01-18T19:30:33.332Z,95828.78
2023-01-18T19:33:03.221Z,95837.59
2023-01-18T19:35:31.143Z,95828.94
2023-01-18T19:38:00.942Z,95843.13
2023-01-18T19:40:27.864Z,95840.44
2023-01-18T19:42:56.032Z,95831.63
2023-01-18T19:45:28.147Z,95836.31
2023-01-18T19:47:57.639Z,95844.41
2023-01-18T19:50:25.289Z,95840.44
2023-01-18T19:52:52.921Z,95851.78
2023-01-18T19:55:21.724Z,95861.31
2023-01-18T19:57:49.353Z,95853.22
2023-01-18T20:00:17.355Z,95851.78
2023-01-18T20:02:44.463Z,95860.59
2023-01-18T20:05:11.448Z,95861.31
2023-01-18T20:07:39.605Z,95856.47
2023-01-18T20:10:07.548Z,95855.56
2023-01-18T20:12:34.626Z,95859.69
2023-01-18T20:15:01.988Z,95857.72
2023-01-18T20:17:28.983Z,95866.53
2023-01-18T20:19:55.721Z,95863.84
2023-01-18T20:22:23.298Z,95868.34
2023-01-18T20:27:37.889Z,95873.19
2023-01-18T20:30:06.399Z,95873.19
2023-01-18T20:32:34.498Z,95881.44
2023-01-18T20:35:01.342Z,95885.56
2023-01-18T20:37:28.877Z,95878.19
2023-01-18T20:39:56.206Z,95888.44
2023-01-18T20:42:23.982Z,95883.59
2023-01-18T20:44:53.752Z,95888.44
2023-01-18T20:47:20.659Z,95887.19
2023-01-18T20:49:47.815Z,95882.50
2023-01-18T20:52:14.993Z,95891.13
2023-01-18T20:54:41.871Z,95886.44
2023-01-18T20:57:12.105Z,95888.44
2023-01-18T20:59:39.696Z,95894.53
2023-01-18T21:02:06.977Z,95898.69
2023-01-18T21:04:33.994Z,95899.22
2023-01-18T21:07:00.746Z,95902.63
2023-01-18T21:09:27.877Z,95900.50
2023-01-18T21:11:54.737Z,95912.56
2023-01-18T21:14:21.839Z,95907.16
2023-01-18T21:16:48.878Z,95913.09
2023-01-18T21:19:16.094Z,95905.53
2023-01-18T21:21:42.807Z,95909.69
2023-01-18T21:24:09.747Z,95910.94
2023-01-18T21:26:38.138Z,95906.81
2023-01-18T21:29:05.968Z,95915.63
2023-01-18T21:31:32.721Z,95911.50
2023-01-18T21:33:59.756Z,95912.06
2023-01-18T21:36:26.639Z,95917.25
2023-01-18T21:38:53.656Z,95914.56
2023-01-18T21:41:38.926Z,95918.53
2023-01-18T21:44:24.351Z,95923.22
2023-01-18T21:46:52.341Z,95923.78
2023-01-18T21:52:44.527Z,95924.34
2023-01-18T21:55:11.768Z,95926.13
2023-01-18T21:57:38.758Z,95933.50
2023-01-18T22:00:06.282Z,95927.25
2023-01-18T22:02:34.202Z,95934.59
2023-01-18T22:05:02.036Z,95928.31
2023-01-18T22:07:30.289Z,95931.19
2023-01-18T22:10:06.566Z,95939.81
2023-01-18T22:12:36.087Z,95930.47
2023-01-18T22:15:04.782Z,95943.78
2023-01-18T22:17:31.719Z,95947.75
2023-01-18T22:19:58.609Z,95956.38
2023-01-18T22:22:25.578Z,95953.69
2023-01-18T22:24:52.369Z,95953.69
2023-01-18T22:27:19.155Z,95954.94
2023-01-18T22:29:45.995Z,95954.22
2023-01-18T22:32:13.115Z,95958.19
2023-01-18T22:34:40.216Z,95963.44
2023-01-18T22:37:07.370Z,95966.66
2023-01-18T22:39:34.068Z,95955.16
2023-01-18T22:42:01.213Z,95978.16
2023-01-18T22:44:28.046Z,95977.44
2023-01-18T22:46:54.976Z,95981.75
2023-01-18T22:49:22.096Z,95975.47
2023-01-18T22:51:49.047Z,95979.41
2023-01-18T22:54:16.021Z,95979.06
2023-01-18T22:56:43.104Z,95972.81
2023-01-18T22:59:09.963Z,95979.47
2023-01-18T23:01:36.915Z,95968.50
2023-01-18T23:04:04.606Z,95968.50
2023-01-18T23:06:48.138Z,95974.44
2023-01-18T23:09:17.719Z,95974.44
2023-01-18T23:11:45.455Z,95977.84
2023-01-18T23:14:30.815Z,95977.69
2023-01-18T23:17:16.368Z,95983.78
2023-01-18T23:19:43.123Z,95976.97
2023-01-18T23:22:10.664Z,95974.81
2023-01-18T23:24:37.980Z,95978.75
2023-01-18T23:27:07.079Z,95978.22
2023-01-18T23:29:34.413Z,95976.78
2023-01-18T23:32:01.600Z,95976.06
2023-01-18T23:34:28.557Z,95984.16
2023-01-18T23:36:55.555Z,95985.59
2023-01-18T23:39:40.966Z,95981.66
2023-01-18T23:42:27.089Z,95987.03
2023-01-18T23:45:12.375Z,95986.13
2023-01-18T23:47:58.371Z,95988.13
2023-01-18T23:50:44.129Z,95983.28
2023-01-18T23:53:33.013Z,95984.00
2023-01-18T23:56:00.259Z,95990.81
2023-01-18T23:58:28.029Z,95992.78
